sensor_id;sensor_type;location;lat;lon;timestamp;pressure;altitude;pressure_sealevel;temperature;humidity
78073;BME280;67281;48.770;11.440;2023-10-13T00:01:23;97391.34;;;19.67;55.84
78073;BME280;67281;48.770;11.440;2023-10-13T00:03:50;97393.19;;;19.66;55.82
78073;BME280;67281;48.770;11.440;2023-10-13T00:06:20;97396.81;;;19.65;55.46
78073;BME280;67281;48.770;11.440;2023-10-13T00:08:47;97405.78;;;19.64;56.15
78073;BME280;67281;48.770;11.440;2023-10-13T00:11:15;97394.31;;;19.64;55.76
78073;BME280;67281;48.770;11.440;2023-10-13T00:13:42;97396.16;;;19.63;56.01
78073;BME280;67281;48.770;11.440;2023-10-13T00:16:10;97382.19;;;19.61;55.75
78073;BME280;67281;48.770;11.440;2023-10-13T00:18:43;97388.50;;;19.60;55.92
78073;BME280;67281;48.770;11.440;2023-10-13T00:21:11;97393.81;;;19.60;55.99
78073;BME280;67281;48.770;11.440;2023-10-13T00:23:59;97397.47;;;19.59;55.97
78073;BME280;67281;48.770;11.440;2023-10-13T00:26:33;97378.84;;;19.59;55.58
78073;BME280;67281;48.770;11.440;2023-10-13T00:29:04;97389.66;;;19.58;55.71
78073;BME280;67281;48.770;11.440;2023-10-13T00:31:35;97377.34;;;19.57;56.07
78073;BME280;67281;48.770;11.440;2023-10-13T00:34:11;97383.50;;;19.57;56.33
78073;BME280;67281;48.770;11.440;2023-10-13T00:36:40;97374.69;;;19.57;56.51
78073;BME280;67281;48.770;11.440;2023-10-13T00:39:15;97373.88;;;19.56;56.19
78073;BME280;67281;48.770;11.440;2023-10-13T00:41:43;97375.53;;;19.57;55.60
78073;BME280;67281;48.770;11.440;2023-10-13T00:44:24;97379.34;;;19.55;55.85
78073;BME280;67281;48.770;11.440;2023-10-13T00:47:10;97382.81;;;19.55;55.66
78073;BME280;67281;48.770;11.440;2023-10-13T00:49:49;97389.13;;;19.54;56.25
78073;BME280;67281;48.770;11.440;2023-10-13T00:52:17;97378.50;;;19.54;55.92
78073;BME280;67281;48.770;11.440;2023-10-13T00:54:45;97387.31;;;19.55;55.62
78073;BME280;67281;48.770;11.440;2023-10-13T00:57:15;97381.31;;;19.53;55.61
78073;BME280;67281;48.770;11.440;2023-10-13T00:59:56;97379.66;;;19.52;56.09
78073;BME280;67281;48.770;11.440;2023-10-13T01:02:24;97369.84;;;19.52;55.60
78073;BME280;67281;48.770;11.440;2023-10-13T01:05:06;97372.66;;;19.51;56.05
78073;BME280;67281;48.770;11.440;2023-10-13T01:07:37;97371.81;;;19.50;56.41
78073;BME280;67281;48.770;11.440;2023-10-13T01:10:09;97370.31;;;19.48;55.60
78073;BME280;67281;48.770;11.440;2023-10-13T01:12:40;97375.47;;;19.49;56.22
78073;BME280;67281;48.770;11.440;2023-10-13T01:15:09;97378.28;;;19.48;56.41
78073;BME280;67281;48.770;11.440;2023-10-13T01:17:37;97379.28;;;19.47;55.91
78073;BME280;67281;48.770;11.440;2023-10-13T01:20:05;97374.94;;;19.46;56.26
78073;BME280;67281;48.770;11.440;2023-10-13T01:22:34;97382.91;;;19.46;55.60
78073;BME280;67281;48.770;11.440;2023-10-13T01:25:03;97379.44;;;19.45;55.78
78073;BME280;67281;48.770;11.440;2023-10-13T01:27:39;97379.44;;;19.45;55.97
78073;BME280;67281;48.770;11.440;2023-10-13T01:30:07;97371.47;;;19.45;56.28
78073;BME280;67281;48.770;11.440;2023-10-13T01:32:39;97367.28;;;19.43;55.91
78073;BME280;67281;48.770;11.440;2023-10-13T01:35:12;97349.53;;;19.43;56.13
78073;BME280;67281;48.770;11.440;2023-10-13T01:37:39;97354.84;;;19.43;55.98
78073;BME280;67281;48.770;11.440;2023-10-13T01:40:06;97353.16;;;19.42;55.54
78073;BME280;67281;48.770;11.440;2023-10-13T01:42:33;97347.03;;;19.42;55.65
78073;BME280;67281;48.770;11.440;2023-10-13T01:45:03;97347.84;;;19.42;56.08
78073;BME280;67281;48.770;11.440;2023-10-13T01:47:33;97356.97;;;19.40;56.07
78073;BME280;67281;48.770;11.440;2023-10-13T01:50:00;97350.66;;;19.41;56.06
78073;BME280;67281;48.770;11.440;2023-10-13T01:52:40;97349.00;;;19.40;56.58
78073;BME280;67281;48.770;11.440;2023-10-13T01:55:09;97345.34;;;19.41;55.64
78073;BME280;67281;48.770;11.440;2023-10-13T01:57:38;97345.50;;;19.39;56.14
78073;BME280;67281;48.770;11.440;2023-10-13T02:00:08;97347.19;;;19.40;55.74
78073;BME280;67281;48.770;11.440;2023-10-13T02:02:46;97348.19;;;19.39;55.66
78073;BME280;67281;48.770;11.440;2023-10-13T02:05:13;97356.47;;;19.36;56.02
78073;BME280;67281;48.770;11.440;2023-10-13T02:07:43;97354.47;;;19.38;56.16
78073;BME280;67281;48.770;11.440;2023-10-13T02:10:13;97350.31;;;19.35;56.08
78073;BME280;67281;48.770;11.440;2023-10-13T02:12:40;97353.81;;;19.36;56.65
78073;BME280;67281;48.770;11.440;2023-10-13T02:15:13;97357.47;;;19.35;56.49
78073;BME280;67281;48.770;11.440;2023-10-13T02:17:53;97364.44;;;19.36;56.01
78073;BME280;67281;48.770;11.440;2023-10-13T02:20:22;97360.28;;;19.33;55.73
78073;BME280;67281;48.770;11.440;2023-10-13T02:22:57;97342.34;;;19.35;56.09
78073;BME280;67281;48.770;11.440;2023-10-13T02:25:24;97356.78;;;19.33;56.47
78073;BME280;67281;48.770;11.440;2023-10-13T02:28:09;97352.47;;;19.32;56.00
78073;BME280;67281;48.770;11.440;2023-10-13T02:30:42;97353.47;;;19.31;56.54
78073;BME280;67281;48.770;11.440;2023-10-13T02:33:12;97348.81;;;19.33;55.73
78073;BME280;67281;48.770;11.440;2023-10-13T02:35:40;97345.31;;;19.32;55.74
78073;BME280;67281;48.770;11.440;2023-10-13T02:38:23;97356.16;;;19.31;55.96
78073;BME280;67281;48.770;11.440;2023-10-13T02:41:02;97356.31;;;19.29;55.99
78073;BME280;67281;48.770;11.440;2023-10-13T02:43:34;97348.50;;;19.28;56.45
78073;BME280;67281;48.770;11.440;2023-10-13T02:46:01;97354.78;;;19.27;56.09
78073;BME280;67281;48.770;11.440;2023-10-13T02:48:29;97349.47;;;19.27;55.80
78073;BME280;67281;48.770;11.440;2023-10-13T02:51:12;97348.66;;;19.26;55.93
78073;BME280;67281;48.770;11.440;2023-10-13T02:53:46;97348.81;;;19.25;56.28
78073;BME280;67281;48.770;11.440;2023-10-13T02:56:16;97348.97;;;19.23;55.65
78073;BME280;67281;48.770;11.440;2023-10-13T02:58:51;97350.94;;;19.21;55.41
78073;BME280;67281;48.770;11.440;2023-10-13T03:01:23;97341.47;;;19.19;55.72
78073;BME280;67281;48.770;11.440;2023-10-13T03:03:54;97344.63;;;19.22;55.82
78073;BME280;67281;48.770;11.440;2023-10-13T03:06:23;97348.44;;;19.20;56.35
78073;BME280;67281;48.770;11.440;2023-10-13T03:09:07;97347.78;;;19.18;56.33
78073;BME280;67281;48.770;11.440;2023-10-13T03:11:42;97347.63;;;19.19;56.15
78073;BME280;67281;48.770;11.440;2023-10-13T03:14:19;97341.47;;;19.19;55.77
78073;BME280;67281;48.770;11.440;2023-10-13T03:16:54;97338.13;;;19.17;56.22
78073;BME280;67281;48.770;11.440;2023-10-13T03:19:21;97336.47;;;19.16;56.41
78073;BME280;67281;48.770;11.440;2023-10-13T03:21:48;97336.31;;;19.17;56.64
78073;BME280;67281;48.770;11.440;2023-10-13T03:24:23;97334.66;;;19.16;56.33
78073;BME280;67281;48.770;11.440;2023-10-13T03:27:03;97334.50;;;19.18;56.20
78073;BME280;67281;48.770;11.440;2023-10-13T03:29:37;97336.31;;;19.17;56.41
78073;BME280;67281;48.770;11.440;2023-10-13T03:32:14;97330.31;;;19.15;56.38
78073;BME280;67281;48.770;11.440;2023-10-13T03:34:42;97331.16;;;19.16;56.13
78073;BME280;67281;48.770;11.440;2023-10-13T03:37:32;97324.19;;;19.15;56.30
78073;BME280;67281;48.770;11.440;2023-10-13T03:40:09;97323.19;;;19.16;56.63
78073;BME280;67281;48.770;11.440;2023-10-13T03:42:53;97321.53;;;19.15;56.75
78073;BME280;67281;48.770;11.440;2023-10-13T03:45:44;97317.88;;;19.16;56.20
78073;BME280;67281;48.770;11.440;2023-10-13T03:48:15;97318.19;;;19.13;56.56
78073;BME280;67281;48.770;11.440;2023-10-13T03:50:59;97316.38;;;19.13;56.40
78073;BME280;67281;48.770;11.440;2023-10-13T03:53:42;97311.88;;;19.14;56.40
78073;BME280;67281;48.770;11.440;2023-10-13T03:56:28;97311.22;;;19.12;56.03
78073;BME280;67281;48.770;11.440;2023-10-13T03:58:59;97318.34;;;19.11;56.37
78073;BME280;67281;48.770;11.440;2023-10-13T04:01:33;97321.84;;;19.12;56.57
78073;BME280;67281;48.770;11.440;2023-10-13T04:04:14;97322.50;;;19.14;56.36
78073;BME280;67281;48.770;11.440;2023-10-13T04:07:01;97319.19;;;19.12;56.58
78073;BME280;67281;48.770;11.440;2023-10-13T04:09:36;97311.53;;;19.09;56.14
78073;BME280;67281;48.770;11.440;2023-10-13T04:12:07;97313.34;;;19.08;56.56
78073;BME280;67281;48.770;11.440;2023-10-13T04:14:42;97309.19;;;19.06;55.86
78073;BME280;67281;48.770;11.440;2023-10-13T04:17:12;97314.81;;;19.02;56.23
78073;BME280;67281;48.770;11.440;2023-10-13T04:19:44;97311.19;;;19.03;56.47
78073;BME280;67281;48.770;11.440;2023-10-13T04:22:29;97310.34;;;19.03;56.15
78073;BME280;67281;48.770;11.440;2023-10-13T04:25:26;97304.19;;;19.02;55.87
78073;BME280;67281;48.770;11.440;2023-10-13T04:28:11;97305.19;;;19.01;56.24
78073;BME280;67281;48.770;11.440;2023-10-13T04:30:48;97308.53;;;19.03;56.21
78073;BME280;67281;48.770;11.440;2023-10-13T04:33:15;97305.88;;;19.03;57.07
78073;BME280;67281;48.770;11.440;2023-10-13T04:36:05;97310.22;;;19.13;56.43
78073;BME280;67281;48.770;11.440;2023-10-13T04:38:52;97305.53;;;19.07;56.83
78073;BME280;67281;48.770;11.440;2023-10-13T04:41:33;97307.84;;;19.01;56.42
78073;BME280;67281;48.770;11.440;2023-10-13T04:44:15;97303.69;;;18.99;56.66
78073;BME280;67281;48.770;11.440;2023-10-13T04:47:01;97303.31;;;18.94;56.86
78073;BME280;67281;48.770;11.440;2023-10-13T04:49:30;97303.16;;;18.95;56.30
78073;BME280;67281;48.770;11.440;2023-10-13T04:52:09;97300.00;;;18.92;56.82
78073;BME280;67281;48.770;11.440;2023-10-13T04:54:39;97300.00;;;18.92;55.99
78073;BME280;67281;48.770;11.440;2023-10-13T04:57:18;97299.16;;;18.91;56.02
78073;BME280;67281;48.770;11.440;2023-10-13T05:00:08;97295.66;;;18.91;56.84
78073;BME280;67281;48.770;11.440;2023-10-13T05:02:39;97292.50;;;18.87;56.03
78073;BME280;67281;48.770;11.440;2023-10-13T05:07:56;97295.16;;;18.87;56.23
78073;BME280;67281;48.770;11.440;2023-10-13T05:10:41;97298.81;;;18.86;56.44
78073;BME280;67281;48.770;11.440;2023-10-13T05:13:27;97297.13;;;18.85;56.13
78073;BME280;67281;48.770;11.440;2023-10-13T05:16:12;97300.78;;;18.84;56.15
78073;BME280;67281;48.770;11.440;2023-10-13T05:18:57;97295.63;;;18.83;55.77
78073;BME280;67281;48.770;11.440;2023-10-13T05:21:43;97300.56;;;18.78;56.14
78073;BME280;67281;48.770;11.440;2023-10-13T05:24:28;97305.72;;;18.79;56.50
78073;BME280;67281;48.770;11.440;2023-10-13T05:27:14;97304.91;;;18.79;56.14
78073;BME280;67281;48.770;11.440;2023-10-13T05:29:59;97307.56;;;18.79;56.21
78073;BME280;67281;48.770;11.440;2023-10-13T05:32:44;97306.56;;;18.80;56.58
78073;BME280;67281;48.770;11.440;2023-10-13T05:35:30;97299.44;;;18.80;56.19
78073;BME280;67281;48.770;11.440;2023-10-13T05:38:16;97312.72;;;18.80;56.32
78073;BME280;67281;48.770;11.440;2023-10-13T05:41:03;97312.03;;;18.78;56.60
78073;BME280;67281;48.770;11.440;2023-10-13T05:43:52;97307.41;;;18.80;56.25
78073;BME280;67281;48.770;11.440;2023-10-13T05:46:37;97316.19;;;18.81;56.54
78073;BME280;67281;48.770;11.440;2023-10-13T05:49:08;97310.06;;;18.80;56.74
78073;BME280;67281;48.770;11.440;2023-10-13T05:51:35;97318.00;;;18.80;56.82
78073;BME280;67281;48.770;11.440;2023-10-13T05:54:03;97320.81;;;18.79;56.29
78073;BME280;67281;48.770;11.440;2023-10-13T05:59:29;97317.19;;;18.80;56.71
78073;BME280;67281;48.770;11.440;2023-10-13T06:02:17;97317.66;;;18.75;56.77
78073;BME280;67281;48.770;11.440;2023-10-13T06:05:04;97315.00;;;18.75;56.31
78073;BME280;67281;48.770;11.440;2023-10-13T06:07:50;97313.19;;;18.76;57.06
78073;BME280;67281;48.770;11.440;2023-10-13T06:10:36;97313.19;;;18.76;56.36
78073;BME280;67281;48.770;11.440;2023-10-13T06:13:23;97316.66;;;18.76;56.07
78073;BME280;67281;48.770;11.440;2023-10-13T06:16:09;97324.63;;;18.76;55.94
78073;BME280;67281;48.770;11.440;2023-10-13T06:18:55;97325.31;;;18.78;56.34
78073;BME280;67281;48.770;11.440;2023-10-13T06:21:40;97321.97;;;18.76;56.32
78073;BME280;67281;48.770;11.440;2023-10-13T06:24:26;97327.44;;;18.75;55.99
78073;BME280;67281;48.770;11.440;2023-10-13T06:27:12;97328.28;;;18.75;56.46
78073;BME280;67281;48.770;11.440;2023-10-13T06:29:57;97323.78;;;18.76;56.38
78073;BME280;67281;48.770;11.440;2023-10-13T06:32:23;97322.13;;;18.75;55.86
78073;BME280;67281;48.770;11.440;2023-10-13T06:34:54;97326.59;;;18.74;56.37
78073;BME280;67281;48.770;11.440;2023-10-13T06:37:56;97329.94;;;18.76;56.58
78073;BME280;67281;48.770;11.440;2023-10-13T06:40:27;97325.78;;;18.74;56.62
78073;BME280;67281;48.770;11.440;2023-10-13T06:43:00;97321.59;;;18.71;56.44
78073;BME280;67281;48.770;11.440;2023-10-13T06:45:53;97330.94;;;18.75;55.96
78073;BME280;67281;48.770;11.440;2023-10-13T06:48:27;97332.75;;;18.75;56.53
78073;BME280;67281;48.770;11.440;2023-10-13T06:51:03;97328.28;;;18.75;55.93
78073;BME280;67281;48.770;11.440;2023-10-13T06:53:45;97329.09;;;18.76;56.26
78073;BME280;67281;48.770;11.440;2023-10-13T06:56:15;97329.25;;;18.74;56.39
78073;BME280;67281;48.770;11.440;2023-10-13T06:58:51;97332.59;;;18.76;56.33
78073;BME280;67281;48.770;11.440;2023-10-13T07:01:27;97334.25;;;18.77;55.90
78073;BME280;67281;48.770;11.440;2023-10-13T07:03:54;97328.94;;;18.77;56.53
78073;BME280;67281;48.770;11.440;2023-10-13T07:06:28;97335.25;;;18.76;56.09
78073;BME280;67281;48.770;11.440;2023-10-13T07:08:55;97337.06;;;18.76;55.90
78073;BME280;67281;48.770;11.440;2023-10-13T07:11:27;97345.25;;;18.82;56.16
78073;BME280;67281;48.770;11.440;2023-10-13T07:14:02;97349.97;;;18.96;56.87
78073;BME280;67281;48.770;11.440;2023-10-13T07:16:59;97346.38;;;19.06;56.43
78073;BME280;67281;48.770;11.440;2023-10-13T07:19:27;97348.72;;;19.09;56.96
78073;BME280;67281;48.770;11.440;2023-10-13T07:22:01;97353.56;;;19.13;56.99
78073;BME280;67281;48.770;11.440;2023-10-13T07:24:47;97353.41;;;19.15;56.91
78073;BME280;67281;48.770;11.440;2023-10-13T07:27:21;97343.44;;;19.17;57.59
78073;BME280;67281;48.770;11.440;2023-10-13T07:29:55;97352.09;;;19.19;57.75
78073;BME280;67281;48.770;11.440;2023-10-13T07:32:41;97347.72;;;19.10;57.11
78073;BME280;67281;48.770;11.440;2023-10-13T07:35:19;97352.38;;;19.08;57.49
78073;BME280;67281;48.770;11.440;2023-10-13T07:37:56;97347.22;;;19.06;57.13
78073;BME280;67281;48.770;11.440;2023-10-13T07:40:27;97350.03;;;19.04;56.61
78073;BME280;67281;48.770;11.440;2023-10-13T07:42:55;97343.88;;;19.04;57.45
78073;BME280;67281;48.770;11.440;2023-10-13T07:45:38;97341.22;;;19.04;56.47
78073;BME280;67281;48.770;11.440;2023-10-13T07:48:09;97346.38;;;19.06;56.58
78073;BME280;67281;48.770;11.440;2023-10-13T07:50:47;97347.88;;;19.08;56.28
78073;BME280;67281;48.770;11.440;2023-10-13T07:53:15;97344.41;;;19.08;56.55
78073;BME280;67281;48.770;11.440;2023-10-13T07:55:54;97333.78;;;19.08;56.12
78073;BME280;67281;48.770;11.440;2023-10-13T07:58:23;97342.56;;;19.08;56.73
78073;BME280;67281;48.770;11.440;2023-10-13T08:00:54;97340.75;;;19.09;56.73
78073;BME280;67281;48.770;11.440;2023-10-13T08:03:34;97339.75;;;19.10;56.42
78073;BME280;67281;48.770;11.440;2023-10-13T08:06:12;97341.13;;;19.14;56.55
78073;BME280;67281;48.770;11.440;2023-10-13T08:08:39;97332.31;;;19.13;56.74
78073;BME280;67281;48.770;11.440;2023-10-13T08:11:08;97337.47;;;19.15;56.23
78073;BME280;67281;48.770;11.440;2023-10-13T08:13:39;97332.97;;;19.15;56.46
78073;BME280;67281;48.770;11.440;2023-10-13T08:16:31;97337.31;;;19.16;56.18
78073;BME280;67281;48.770;11.440;2023-10-13T08:19:18;97334.50;;;19.18;56.69
78073;BME280;67281;48.770;11.440;2023-10-13T08:21:47;97332.16;;;19.15;55.68
78073;BME280;67281;48.770;11.440;2023-10-13T08:24:21;97335.47;;;19.17;56.84
78073;BME280;67281;48.770;11.440;2023-10-13T08:27:07;97321.22;;;19.18;55.72
78073;BME280;67281;48.770;11.440;2023-10-13T08:29:46;97331.84;;;19.18;55.74
78073;BME280;67281;48.770;11.440;2023-10-13T08:32:25;97320.38;;;19.17;55.33
78073;BME280;67281;48.770;11.440;2023-10-13T08:35:00;97327.50;;;19.17;56.18
78073;BME280;67281;48.770;11.440;2023-10-13T08:37:47;97319.38;;;19.18;56.57
78073;BME280;67281;48.770;11.440;2023-10-13T08:40:43;97320.22;;;19.19;55.54
78073;BME280;67281;48.770;11.440;2023-10-13T08:43:23;97319.06;;;19.21;55.37
78073;BME280;67281;48.770;11.440;2023-10-13T08:45:51;97318.91;;;19.23;55.40
78073;BME280;67281;48.770;11.440;2023-10-13T08:48:20;97317.25;;;19.22;54.92
78073;BME280;67281;48.770;11.440;2023-10-13T08:50:52;97315.25;;;19.24;55.92
78073;BME280;67281;48.770;11.440;2023-10-13T08:53:20;97312.59;;;19.24;54.98
78073;BME280;67281;48.770;11.440;2023-10-13T08:56:02;97310.63;;;19.26;55.60
78073;BME280;67281;48.770;11.440;2023-10-13T08:58:48;97319.25;;;19.28;55.34
78073;BME280;67281;48.770;11.440;2023-10-13T09:01:35;97309.31;;;19.30;54.90
78073;BME280;67281;48.770;11.440;2023-10-13T09:04:21;97312.59;;;19.32;55.05
78073;BME280;67281;48.770;11.440;2023-10-13T09:06:56;97307.97;;;19.34;54.88
78073;BME280;67281;48.770;11.440;2023-10-13T09:09:27;97299.66;;;19.37;55.14
78073;BME280;67281;48.770;11.440;2023-10-13T09:14:54;97297.53;;;19.41;54.63
78073;BME280;67281;48.770;11.440;2023-10-13T09:17:29;97302.69;;;19.42;54.56
78073;BME280;67281;48.770;11.440;2023-10-13T09:20:07;97295.38;;;19.44;54.67
78073;BME280;67281;48.770;11.440;2023-10-13T09:22:50;97299.53;;;19.47;55.03
78073;BME280;67281;48.770;11.440;2023-10-13T09:25:30;97298.38;;;19.49;54.79
78073;BME280;67281;48.770;11.440;2023-10-13T09:28:02;97291.09;;;19.51;54.94
78073;BME280;67281;48.770;11.440;2023-10-13T09:30:29;97294.44;;;19.53;54.39
78073;BME280;67281;48.770;11.440;2023-10-13T09:33:02;97284.47;;;19.55;54.37
78073;BME280;67281;48.770;11.440;2023-10-13T09:35:31;97289.47;;;19.58;54.67
78073;BME280;67281;48.770;11.440;2023-10-13T09:38:00;97284.81;;;19.60;54.28
78073;BME280;67281;48.770;11.440;2023-10-13T09:40:30;97283.81;;;19.61;54.91
78073;BME280;67281;48.770;11.440;2023-10-13T09:43:00;97275.53;;;19.64;54.57
78073;BME280;67281;48.770;11.440;2023-10-13T09:45:41;97274.38;;;19.67;54.61
78073;BME280;67281;48.770;11.440;2023-10-13T09:48:34;97276.69;;;19.70;54.22
78073;BME280;67281;48.770;11.440;2023-10-13T09:51:04;97264.91;;;19.73;54.09
78073;BME280;67281;48.770;11.440;2023-10-13T09:53:36;97270.06;;;19.74;54.60
78073;BME280;67281;48.770;11.440;2023-10-13T09:56:28;97263.59;;;19.77;54.09
78073;BME280;67281;48.770;11.440;2023-10-13T09:59:19;97267.75;;;19.79;54.41
78073;BME280;67281;48.770;11.440;2023-10-13T10:01:46;97254.28;;;19.81;54.01
78073;BME280;67281;48.770;11.440;2023-10-13T10:04:24;97262.75;;;19.84;54.22
78073;BME280;67281;48.770;11.440;2023-10-13T10:06:56;97262.44;;;19.87;54.12
78073;BME280;67281;48.770;11.440;2023-10-13T10:09:27;97261.28;;;19.90;54.69
78073;BME280;67281;48.770;11.440;2023-10-13T10:12:41;97258.28;;;19.93;54.20
78073;BME280;67281;48.770;11.440;2023-10-13T10:15:29;97254.47;;;19.95;54.21
78073;BME280;67281;48.770;11.440;2023-10-13T10:18:21;97256.78;;;19.98;54.16
78073;BME280;67281;48.770;11.440;2023-10-13T10:21:05;97248.47;;;20.01;53.77
78073;BME280;67281;48.770;11.440;2023-10-13T10:23:34;97251.97;;;20.02;53.76
78073;BME280;67281;48.770;11.440;2023-10-13T10:26:12;97251.44;;;20.07;54.14
78073;BME280;67281;48.770;11.440;2023-10-13T10:28:42;97236.97;;;20.09;54.07
78073;BME280;67281;48.770;11.440;2023-10-13T10:31:10;97233.97;;;20.12;53.69
78073;BME280;67281;48.770;11.440;2023-10-13T10:33:46;97242.63;;;20.14;53.63
78073;BME280;67281;48.770;11.440;2023-10-13T10:36:28;97231.66;;;20.17;54.02
78073;BME280;67281;48.770;11.440;2023-10-13T10:38:57;97230.31;;;20.21;53.81
78073;BME280;67281;48.770;11.440;2023-10-13T10:41:29;97230.16;;;20.23;54.60
78073;BME280;67281;48.770;11.440;2023-10-13T10:44:12;97226.16;;;20.27;53.89
78073;BME280;67281;48.770;11.440;2023-10-13T10:47:10;97220.31;;;20.31;54.11
78073;BME280;67281;48.770;11.440;2023-10-13T10:49:38;97214.00;;;20.32;53.68
78073;BME280;67281;48.770;11.440;2023-10-13T10:52:09;97209.16;;;20.36;54.26
78073;BME280;67281;48.770;11.440;2023-10-13T10:54:41;97207.19;;;20.38;54.37
78073;BME280;67281;48.770;11.440;2023-10-13T10:57:11;97203.38;;;20.41;54.16
78073;BME280;67281;48.770;11.440;2023-10-13T10:59:38;97197.06;;;20.42;53.97
78073;BME280;67281;48.770;11.440;2023-10-13T11:02:08;97191.38;;;20.45;54.07
78073;BME280;67281;48.770;11.440;2023-10-13T11:04:39;97181.41;;;20.47;54.28
78073;BME280;67281;48.770;11.440;2023-10-13T11:07:25;97179.41;;;20.49;53.66
78073;BME280;67281;48.770;11.440;2023-10-13T11:09:54;97173.72;;;20.52;54.00
78073;BME280;67281;48.770;11.440;2023-10-13T11:12:40;97168.91;;;20.55;54.06
78073;BME280;67281;48.770;11.440;2023-10-13T11:15:25;97158.72;;;20.59;54.11
78073;BME280;67281;48.770;11.440;2023-10-13T11:18:05;97154.91;;;20.61;53.96
78073;BME280;67281;48.770;11.440;2023-10-13T11:20:43;97155.38;;;20.65;54.20
78073;BME280;67281;48.770;11.440;2023-10-13T11:23:12;97152.38;;;20.68;53.94
78073;BME280;67281;48.770;11.440;2023-10-13T11:25:39;97145.88;;;20.71;53.82
78073;BME280;67281;48.770;11.440;2023-10-13T11:28:17;97150.19;;;20.72;53.69
78073;BME280;67281;48.770;11.440;2023-10-13T11:30:44;97139.38;;;20.73;53.74
78073;BME280;67281;48.770;11.440;2023-10-13T11:33:18;97137.19;;;20.77;54.63
78073;BME280;67281;48.770;11.440;2023-10-13T11:35:50;97133.34;;;20.79;54.01
78073;BME280;67281;48.770;11.440;2023-10-13T11:38:37;97131.97;;;20.83;53.40
78073;BME280;67281;48.770;11.440;2023-10-13T11:41:07;97126.28;;;20.86;54.13
78073;BME280;67281;48.770;11.440;2023-10-13T11:43:35;97125.94;;;20.89;53.41
78073;BME280;67281;48.770;11.440;2023-10-13T11:46:13;97119.44;;;20.92;53.72
78073;BME280;67281;48.770;11.440;2023-10-13T11:48:45;97111.28;;;20.93;53.94
78073;BME280;67281;48.770;11.440;2023-10-13T11:51:14;97110.91;;;20.96;53.91
78073;BME280;67281;48.770;11.440;2023-10-13T11:53:44;97113.41;;;20.98;53.74
78073;BME280;67281;48.770;11.440;2023-10-13T11:56:12;97108.56;;;21.02;53.60
78073;BME280;67281;48.770;11.440;2023-10-13T11:58:40;97102.06;;;21.04;53.97
78073;BME280;67281;48.770;11.440;2023-10-13T12:01:08;97104.34;;;21.07;53.26
78073;BME280;67281;48.770;11.440;2023-10-13T12:03:44;97094.34;;;21.09;54.03
78073;BME280;67281;48.770;11.440;2023-10-13T12:06:31;97084.53;;;21.10;54.02
78073;BME280;67281;48.770;11.440;2023-10-13T12:09:04;97079.03;;;21.11;53.60
78073;BME280;67281;48.770;11.440;2023-10-13T12:12:00;97083.81;;;21.16;53.29
78073;BME280;67281;48.770;11.440;2023-10-13T12:14:27;97079.78;;;21.20;53.26
78073;BME280;67281;48.770;11.440;2023-10-13T12:16:56;97073.47;;;21.21;53.48
78073;BME280;67281;48.770;11.440;2023-10-13T12:19:30;97068.81;;;21.23;53.07
78073;BME280;67281;48.770;11.440;2023-10-13T12:21:58;97073.13;;;21.24;53.57
78073;BME280;67281;48.770;11.440;2023-10-13T12:24:30;97065.31;;;21.22;53.67
78073;BME280;67281;48.770;11.440;2023-10-13T12:27:17;97062.47;;;21.24;53.64
78073;BME280;67281;48.770;11.440;2023-10-13T12:29:51;97061.47;;;21.25;53.26
78073;BME280;67281;48.770;11.440;2023-10-13T12:32:19;97054.28;;;21.25;53.46
78073;BME280;67281;48.770;11.440;2023-10-13T12:34:57;97057.63;;;21.27;53.71
78073;BME280;67281;48.770;11.440;2023-10-13T12:37:26;97059.44;;;21.27;53.16
78073;BME280;67281;48.770;11.440;2023-10-13T12:40:12;97048.44;;;21.30;53.52
78073;BME280;67281;48.770;11.440;2023-10-13T12:42:58;97047.41;;;21.31;53.87
78073;BME280;67281;48.770;11.440;2023-10-13T12:45:48;97036.56;;;21.33;53.79
78073;BME280;67281;48.770;11.440;2023-10-13T12:48:35;97027.56;;;21.34;53.80
78073;BME280;67281;48.770;11.440;2023-10-13T12:51:21;97031.72;;;21.36;53.88
78073;BME280;67281;48.770;11.440;2023-10-13T12:54:01;97031.72;;;21.36;53.89
78073;BME280;67281;48.770;11.440;2023-10-13T12:56:32;97030.53;;;21.39;53.17
78073;BME280;67281;48.770;11.440;2023-10-13T12:58:59;97025.19;;;21.39;53.76
78073;BME280;67281;48.770;11.440;2023-10-13T13:01:26;97018.84;;;21.40;53.46
78073;BME280;67281;48.770;11.440;2023-10-13T13:03:59;97016.84;;;21.42;53.86
78073;BME280;67281;48.770;11.440;2023-10-13T13:06:30;97017.31;;;21.45;53.64
78073;BME280;67281;48.770;11.440;2023-10-13T13:08:58;97011.63;;;21.48;53.43
78073;BME280;67281;48.770;11.440;2023-10-13T13:11:27;97015.75;;;21.51;53.11
78073;BME280;67281;48.770;11.440;2023-10-13T13:13:57;97011.69;;;21.55;53.94
78073;BME280;67281;48.770;11.440;2023-10-13T13:16:24;97004.16;;;21.58;53.00
78073;BME280;67281;48.770;11.440;2023-10-13T13:18:51;96998.44;;;21.61;53.57
78073;BME280;67281;48.770;11.440;2023-10-13T13:21:18;96998.28;;;21.63;53.63
78073;BME280;67281;48.770;11.440;2023-10-13T13:23:52;96994.41;;;21.65;53.66
78073;BME280;67281;48.770;11.440;2023-10-13T13:26:22;96997.53;;;21.69;52.70
78073;BME280;67281;48.770;11.440;2023-10-13T13:28:50;96979.34;;;21.73;53.07
78073;BME280;67281;48.770;11.440;2023-10-13T13:31:23;96989.63;;;21.76;52.97
78073;BME280;67281;48.770;11.440;2023-10-13T13:33:56;96985.78;;;21.78;53.38
78073;BME280;67281;48.770;11.440;2023-10-13T13:36:23;96975.75;;;21.80;53.15
78073;BME280;67281;48.770;11.440;2023-10-13T13:38:50;96968.19;;;21.84;52.80
78073;BME280;67281;48.770;11.440;2023-10-13T13:41:18;96977.69;;;21.86;52.69
78073;BME280;67281;48.770;11.440;2023-10-13T13:43:49;96974.00;;;21.87;53.34